Latest Coastal Weather Observations for Walpole North

IDW60701

Issued at 9:33 pm WST Monday 27 February 2017 (issued every 10 minutes, with the page automatically refreshed every 10 minutes)

About coastal observations | Map of coastal stations | Coastal observations for WA | Marine services | Other Formats
Station Details ID: 009998 Name: NORTH WALPOLE Lat: -34.95 Lon: 116.72 Height: 73.0 m
Data from the previous 72 hours. | See also: Recent months at Walpole North
Date/Time
WST
Temp
°C
Wind Pressure Rain since
9am
mm
Weather Cloud Vis
km
Sea
Height
m
Swell
Dir  Spd
kts
Gust
kts
hPa Trend Height
m
Period
s
Dir
27/09:30pm 17.6 NE 1 3 1018.1 - 0.0 - - - - - - -
27/09:00pm 17.8 ENE 4 6 1017.7 - 0.0 - - - - - - -
27/08:30pm 18.1 E 5 8 1017.4 - 0.0 - - - - - - -
27/08:00pm 18.3 SE 6 8 1017.1 - 0.0 - - - - - - -
27/07:30pm 18.6 S 6 9 1016.7 - 0.0 - - - - - - -
27/07:00pm 18.9 E 6 9 1016.2 - 0.0 - - - - - - -
27/06:30pm 19.1 E 7 10 1016.7 - 0.0 - - - - - - -
27/06:00pm 19.4 S 4 5 1016.9 - 0.0 - - - - - - -
27/05:30pm 19.7 SSE 5 8 1016.1 - 0.0 - - - - - - -
27/05:00pm 19.9 E 7 9 1016.0 - 0.0 - - - - - - -
27/04:30pm 20.4 E 6 10 1016.0 - 0.0 - - - - - - -
27/04:00pm 20.3 SE 7 11 1016.1 - 0.0 - - - - - - -
27/03:30pm 20.3 SSE 9 13 1016.2 - 0.0 - - - - - - -
27/03:00pm 20.5 S 6 11 1016.0 - 0.0 - - - - - - -
27/02:30pm 21.9 SSE 5 11 1015.9 - 0.0 - - - - - - -
27/02:00pm 21.3 S 4 8 1016.2 - 0.0 - - - - - - -
27/01:30pm 22.5 S 7 13 1016.2 - 0.0 - - - - - - -
27/01:00pm 22.8 SSW 4 7 1016.3 - 0.0 - - - - - - -
27/12:30pm 22.7 ENE 4 5 1016.5 - 0.0 - - - - - - -
27/12:00pm 22.2 ESE 5 8 1016.6 - 0.0 - - - - - - -
27/11:30am 22.1 ENE 7 11 1016.6 - 0.0 - - - - - - -
27/11:00am 23.3 ENE 6 10 1016.8 - 0.0 - - - - - - -
27/10:30am 20.8 ENE 6 9 1017.0 - 0.0 - - - - - - -
27/10:00am 20.1 E 5 7 1017.2 - 0.0 - - - - - - -
27/09:30am 19.7 NE 5 8 1017.3 - 0.0 - - - - - - -
27/09:00am 19.0 ENE 7 10 1017.1 - 0.0 - - - - - - -
27/08:30am 18.4 ENE 7 10 1016.8 - 0.0 - - - - - - -
27/08:00am 16.4 SSW 3 4 1016.5 - 0.0 - - - - - - -
27/07:30am 15.8 CALM 0 0 1016.4 - 0.0 - - - - - - -
27/07:00am 15.6 SSW 3 4 1016.0 - 0.0 - - - - - - -
27/06:30am 14.5 CALM 0 0 1015.9 - 0.0 - - - - - - -
27/06:00am 14.8 CALM 0 0 1015.4 - 0.0 - - - - - - -
27/05:30am 14.6 SSW 3 4 1015.3 - 0.0 - - - - - - -
27/05:00am 14.8 CALM 0 0 1015.1 - 0.0 - - - - - - -
27/04:30am 15.0 CALM 0 0 1015.1 - 0.0 - - - - - - -
27/04:00am 15.1 CALM 0 0 1014.9 - 0.0 - - - - - - -
27/03:30am 14.7 CALM 0 0 1015.2 - 0.0 - - - - - - -
27/03:00am 15.0 CALM 0 0 1015.2 - 0.0 - - - - - - -
27/02:30am 14.3 CALM 0 0 1015.1 - 0.0 - - - - - - -
27/02:00am 14.4 CALM 0 0 1015.0 - 0.0 - - - - - - -
27/01:30am 14.1 CALM 0 0 1015.1 - 0.0 - - - - - - -
27/01:00am 14.6 CALM 0 0 1015.1 - 0.0 - - - - - - -
27/12:30am 14.9 SSW 2 5 1015.2 - 0.0 - - - - - - -
27/12:00am 14.9 SSW 2 5 1015.4 - 0.0 - - - - - - -
 
Date/Time
WST
Temp
°C
Wind Pressure Rain since
9am
mm
Weather Cloud Vis
km
Sea
Height
m
Swell
Dir  Spd
kts
Gust
kts
hPa Trend Height
m
Period
s
Dir
26/11:30pm 14.7 CALM 0 0 1015.5 - 0.0 - - - - - - -
26/11:00pm 14.4 CALM 0 0 1015.2 - 0.0 - - - - - - -
26/10:30pm 15.3 CALM 0 0 1015.1 - 0.0 - - - - - - -
26/10:00pm 15.7 CALM 0 0 1015.4 - 0.0 - - - - - - -
26/09:30pm 15.9 CALM 0 0 1015.4 - 0.0 - - - - - - -
26/09:00pm 16.4 SSW 3 3 1015.5 - 0.0 - - - - - - -
26/08:30pm 16.4 CALM 0 4 1015.3 - 0.0 - - - - - - -
26/08:00pm 16.8 CALM 0 0 1014.9 - 0.0 - - - - - - -
26/07:30pm 17.2 CALM 0 0 1014.6 - 0.0 - - - - - - -
26/07:00pm 17.9 SSW 3 5 1014.4 - 0.0 - - - - - - -
26/06:30pm 18.9 S 5 10 1014.1 - 0.0 - - - - - - -
26/06:00pm 20.0 SE 4 7 1014.1 - 0.0 - - - - - - -
26/05:30pm 20.2 SSE 5 7 1013.9 - 0.0 - - - - - - -
26/05:00pm 20.0 S 6 12 1013.7 - 0.0 - - - - - - -
26/04:30pm 21.1 SSE 6 8 1013.5 - 0.0 - - - - - - -
26/04:00pm 20.5 S 6 11 1013.4 - 0.0 - - - - - - -
26/03:30pm 21.9 SSE 7 13 1013.3 - 0.0 - - - - - - -
26/03:00pm 21.8 SSE 8 11 1013.2 - 0.0 - - - - - - -
26/02:30pm 21.5 SSE 8 13 1013.1 - 0.0 - - - - - - -
26/02:00pm 22.2 SSW 7 13 1013.3 - 0.0 - - - - - - -
26/01:30pm 21.7 SSE 6 11 1013.3 - 0.0 - - - - - - -
26/01:00pm 21.8 SE 9 12 1013.0 - 0.0 - - - - - - -
26/12:30pm 21.8 S 7 13 1013.2 - 0.0 - - - - - - -
26/12:00pm 22.3 S 7 11 1013.1 - 0.0 - - - - - - -
26/11:30am 22.2 SSE 7 12 1013.5 - 0.0 - - - - - - -
26/11:00am 21.2 S 7 11 1013.6 - 0.0 - - - - - - -
26/10:30am 21.3 SE 7 9 1013.8 - 0.0 - - - - - - -
26/10:00am 20.9 S 7 11 1013.7 - 0.0 - - - - - - -
26/09:30am 20.2 S 6 14 1013.7 - 0.0 - - - - - - -
26/09:00am 19.6 SSE 6 10 1013.7 - 0.0 - - - - - - -
26/08:30am 18.9 SSE 4 7 1013.8 - 0.0 - - - - - - -
26/08:00am 17.7 SE 4 5 1013.8 - 0.0 - - - - - - -
26/07:30am 16.3 CALM 0 0 1013.6 - 0.0 - - - - - - -
26/07:00am 15.2 CALM 0 0 1013.4 - 0.0 - - - - - - -
26/06:30am 14.4 CALM 0 0 1013.2 - 0.0 - - - - - - -
26/06:00am 14.1 CALM 0 0 1013.1 - 0.0 - - - - - - -
26/05:30am 14.0 SW 3 5 1012.9 - 0.0 - - - - - - -
26/05:00am 14.0 CALM 0 3 1012.8 - 0.0 - - - - - - -
26/04:30am 13.5 SW 3 4 1012.6 - 0.0 - - - - - - -
26/04:00am 14.3 CALM 0 0 1012.5 - 0.0 - - - - - - -
26/03:30am 14.7 CALM 0 0 1012.4 - 0.0 - - - - - - -
26/03:00am 14.7 SW 1 4 1012.7 - 0.0 - - - - - - -
26/02:30am 14.8 CALM 0 3 1012.7 - 0.0 - - - - - - -
26/02:00am 15.3 SW 4 5 1013.0 - 0.0 - - - - - - -
26/01:30am 15.8 SW 4 5 1013.1 - 0.0 - - - - - - -
26/01:00am 16.3 SW 5 6 1013.3 - 0.0 - - - - - - -
26/12:30am 16.9 SW 6 11 1013.5 - 0.0 - - - - - - -
26/12:00am 17.1 SW 6 10 1013.6 - 0.0 - - - - - - -
 
Date/Time
WST
Temp
°C
Wind Pressure Rain since
9am
mm
Weather Cloud Vis
km
Sea
Height
m
Swell
Dir  Spd
kts
Gust
kts
hPa Trend Height
m
Period
s
Dir
25/11:30pm 16.9 SW 5 8 1013.6 - 0.0 - - - - - - -
25/11:00pm 16.7 WSW 6 9 1013.7 - 0.0 - - - - - - -
25/10:30pm 17.0 WSW 6 9 1013.8 - 0.0 - - - - - - -
25/10:00pm 17.0 WSW 6 8 1013.7 - 0.0 - - - - - - -
25/09:30pm 17.0 WSW 5 7 1013.7 - 0.0 - - - - - - -
25/09:00pm 17.1 WSW 6 7 1013.8 - 0.0 - - - - - - -
25/08:30pm 17.4 SW 3 4 1013.8 - 0.0 - - - - - - -
25/08:00pm 17.6 SSW 4 7 1013.8 - 0.0 - - - - - - -
25/07:30pm 17.8 SSE 2 5 1013.6 - 0.0 - - - - - - -
25/07:00pm 18.3 SSE 2 5 1013.4 - 0.0 - - - - - - -
25/06:30pm 19.1 SSE 4 6 1013.1 - 0.0 - - - - - - -
25/06:00pm 19.9 SSE 5 8 1013.1 - 0.0 - - - - - - -
25/05:30pm 20.8 SSE 6 10 1013.0 - 0.0 - - - - - - -
25/05:00pm 21.7 SSE 6 11 1012.7 - 0.0 - - - - - - -
25/04:30pm 23.0 SE 8 12 1012.5 - 0.0 - - - - - - -
25/04:00pm 24.4 SSE 10 14 1012.4 - 0.0 - - - - - - -
25/03:30pm 26.1 SSE 6 11 1012.4 - 0.0 - - - - - - -
25/03:00pm 26.2 SE 9 14 1012.5 - 0.0 - - - - - - -
25/02:30pm 27.2 SE 10 14 1012.7 - 0.0 - - - - - - -
25/02:00pm 27.6 SE 8 13 1013.0 - 0.0 - - - - - - -
25/01:30pm 28.2 SSE 6 10 1013.1 - 0.0 - - - - - - -
25/01:00pm 29.0 SSE 7 9 1013.3 - 0.0 - - - - - - -
25/12:52pm 29.5 S 7 11 1013.4 - 0.0 - - - - - - -
25/12:30pm 34.5 NW 9 15 1013.6 - 0.0 - - - - - - -
25/12:00pm 33.8 NW 9 13 1014.0 - 0.0 - - - - - - -
25/11:30am 32.9 NNW 8 14 1014.4 - 0.0 - - - - - - -
25/11:00am 32.3 NW 10 19 1014.7 - 0.0 - - - - - - -
25/10:30am 31.5 N 8 13 1015.1 - 0.0 - - - - - - -
25/10:00am 30.6 N 9 13 1015.3 - 0.0 - - - - - - -
25/09:30am 28.9 N 6 11 1015.6 - 0.0 - - - - - - -
25/09:00am 26.9 N 6 11 1015.9 - 0.0 - - - - - - -
25/08:30am 26.1 N 6 13 1016.0 - 0.0 - - - - - - -
25/08:00am 25.0 NE 7 11 1016.2 - 0.0 - - - - - - -
25/07:30am 23.7 NE 5 8 1016.3 - 0.0 - - - - - - -
25/07:00am 22.6 NNE 7 11 1016.2 - 0.0 - - - - - - -
25/06:30am 21.2 NE 8 11 1016.2 - 0.0 - - - - - - -
25/06:00am 20.3 NE 9 13 1016.2 - 0.0 - - - - - - -
25/05:30am 20.6 NE 9 13 1016.1 - 0.0 - - - - - - -
25/05:00am 20.1 NE 9 15 1016.0 - 0.0 - - - - - - -
25/04:30am 20.4 NE 11 16 1016.0 - 0.0 - - - - - - -
25/04:00am 20.1 NE 10 16 1016.2 - 0.0 - - - - - - -
25/03:30am 20.1 NE 9 13 1016.5 - 0.0 - - - - - - -
25/03:00am 20.3 NE 7 10 1016.8 - 0.0 - - - - - - -
25/02:30am 20.6 NE 6 8 1017.1 - 0.0 - - - - - - -
25/02:00am 20.9 NNE 6 8 1017.3 - 0.0 - - - - - - -
25/01:30am 21.2 NE 7 10 1017.4 - 0.0 - - - - - - -
25/01:00am 21.4 NE 8 11 1017.6 - 0.0 - - - - - - -
25/12:30am 21.8 NNE 10 15 1017.8 - 0.0 - - - - - - -
25/12:00am 21.3 NNE 8 13 1018.2 - 0.0 - - - - - - -
 
Date/Time
WST
Temp
°C
Wind Pressure Rain since
9am
mm
Weather Cloud Vis
km
Sea
Height
m
Swell
Dir  Spd
kts
Gust
kts
hPa Trend Height
m
Period
s
Dir
24/11:30pm 17.7 ESE 3 7 1018.5 - 0.0 - - - - - - -
24/11:00pm 18.1 SE 3 4 1018.9 - 0.0 - - - - - - -
24/10:30pm 18.1 SE 1 4 1019.3 - 0.0 - - - - - - -
24/10:00pm 18.0 CALM 0 0 1019.3 - 0.0 - - - - - - -

Other Formats:

Comma delimited format used in spreadsheet applications
http://www.bom.gov.au/fwo/IDW60701/IDW60701.95647.axf

JavaScript Object Notation format (JSON) in row-major order
http://www.bom.gov.au/fwo/IDW60701/IDW60701.95647.json